Archiv-/Tagesdaten

--Timestamp---	Temp	Chill	HIndex	Humid	Dewpt	Wind	HiWind	WindDir	Rain	Barom	        Solar	ET	UV
--------------	----	-----	------	-----	-----	----	------	-------	----	-----	        -----	--	--
20081206 00:05	1.8	1.8	1.8	85	-0.4	3	11	202	0.00	1000.274	0	0.000	0
20081206 00:10	1.8	1.8	1.8	85	-0.5	2	8	157	0.00	1000.139	0	0.000	0
20081206 00:15	1.8	1.8	1.8	85	-0.5	2	6	202	0.00	1000.173	0	0.000	0
20081206 00:20	1.8	1.8	1.8	85	-0.5	5	14	202	0.00	1000.444	0	0.000	0
20081206 00:25	1.8	1.8	1.8	85	-0.4	5	14	157	0.00	1000.410	0	0.000	0
20081206 00:30	1.9	1.9	1.9	85	-0.4	3	13	225	0.00	1000.681	0	0.000	0
20081206 00:35	1.9	1.9	1.9	85	-0.3	3	14	180	0.00	1000.613	0	0.000	0
20081206 00:40	1.9	1.9	1.9	85	-0.3	3	8	225	0.00	1000.715	0	0.000	0
20081206 00:45	1.9	1.9	1.9	85	-0.4	3	10	202	0.00	1000.816	0	0.000	0
20081206 00:50	1.8	1.8	1.8	85	-0.4	5	14	202	0.00	1001.155	0	0.000	0
20081206 00:55	2.2	0.3	2.2	84	-0.3	6	19	247	0.00	1001.222	0	0.000	0
20081206 01:00	2.5	-0.6	2.5	82	-0.3	11	35	247	0.00	1001.460	0	0.000	0
20081206 01:05	3.4	0.2	3.4	79	0.2	13	35	247	0.00	1001.290	0	0.000	0
20081206 01:10	3.8	1.0	3.8	78	0.4	11	24	247	0.00	1001.222	0	0.000	0
20081206 01:15	3.8	1.0	3.8	78	0.4	11	29	247	0.00	1001.290	0	0.000	0
20081206 01:20	3.8	1.0	3.8	79	0.5	11	23	247	0.00	1001.290	0	0.000	0
20081206 01:25	3.7	1.2	3.7	79	0.4	10	31	247	0.00	1001.358	0	0.000	0
20081206 01:30	3.6	1.4	3.6	79	0.3	8	19	247	0.00	1001.426	0	0.000	0
20081206 01:35	3.5	1.4	3.5	79	0.2	8	16	247	0.00	1001.460	0	0.000	0
20081206 01:40	3.5	1.4	3.5	79	0.2	8	23	247	0.00	1001.527	0	0.000	0
20081206 01:45	3.5	1.4	3.5	79	0.2	8	19	225	0.00	1001.561	0	0.000	0
20081206 01:50	3.6	1.0	3.6	79	0.3	10	24	225	0.00	1001.561	0	0.000	0
20081206 01:55	3.7	1.2	3.7	78	0.2	10	21	247	0.00	1001.663	0	0.000	0
20081206 02:00	3.7	1.6	3.7	78	0.2	8	19	247	0.00	1001.730	0	0.020	0
20081206 02:05	3.7	1.6	3.7	79	0.4	8	18	247	0.00	1001.967	0	0.000	0
20081206 02:10	3.8	1.7	3.8	78	0.3	8	16	247	0.00	1002.035	0	0.000	0
20081206 02:15	3.8	1.3	3.8	78	0.3	10	21	225	0.00	1002.069	0	0.000	0
20081206 02:20	3.8	2.2	3.8	78	0.4	6	19	247	0.00	1002.103	0	0.000	0
20081206 02:25	4.0	2.0	4.0	78	0.5	8	23	247	0.00	1002.205	0	0.000	0
20081206 02:30	4.1	1.3	4.1	77	0.4	11	26	247	0.00	1002.205	0	0.000	0
20081206 02:35	4.1	1.0	4.1	77	0.4	13	34	247	0.00	1002.306	0	0.000	0
20081206 02:40	4.2	1.8	4.2	77	0.5	10	26	247	0.00	1002.171	0	0.000	0
20081206 02:45	4.2	1.2	4.2	76	0.4	13	24	247	0.00	1002.205	0	0.000	0
20081206 02:50	4.3	1.5	4.3	77	0.6	11	24	225	0.00	1002.171	0	0.000	0
20081206 02:55	4.3	1.5	4.3	77	0.6	11	21	247	0.00	1002.171	0	0.000	0
20081206 03:00	4.2	1.1	4.2	77	0.5	13	26	247	0.00	1002.272	0	0.020	0
20081206 03:05	4.2	1.5	4.2	77	0.6	11	26	247	0.00	1002.442	0	0.000	0
20081206 03:10	4.2	1.8	4.2	77	0.5	10	23	247	0.00	1002.577	0	0.000	0
20081206 03:15	4.1	1.7	4.1	77	0.4	10	24	247	0.00	1002.746	0	0.000	0
20081206 03:20	4.1	1.6	4.1	78	0.6	10	23	247	0.00	1002.746	0	0.000	0
20081206 03:25	4.0	1.2	4.0	78	0.5	11	31	247	0.00	1002.814	0	0.000	0
20081206 03:30	4.1	1.6	4.1	77	0.4	10	24	247	0.00	1002.814	0	0.000	0
20081206 03:35	4.1	1.0	4.1	77	0.4	13	26	247	0.00	1002.848	0	0.000	0
20081206 03:40	4.0	1.6	4.0	77	0.3	10	19	247	0.00	1002.983	0	0.000	0
20081206 03:45	3.9	1.9	3.9	78	0.5	8	26	247	0.00	1002.983	0	0.000	0
20081206 03:50	3.8	1.8	3.8	78	0.4	8	23	247	0.00	1003.017	0	0.000	0
20081206 03:55	3.8	1.8	3.8	78	0.4	8	16	247	0.00	1003.153	0	0.000	0
20081206 04:00	3.8	1.7	3.8	78	0.3	8	16	247	0.00	1003.187	0	0.020	0
20081206 04:05	3.7	2.1	3.7	78	0.2	6	11	247	0.00	1003.153	0	0.000	0
20081206 04:10	3.8	2.2	3.8	78	0.3	6	13	247	0.00	1003.220	0	0.000	0
20081206 04:15	3.8	3.8	3.8	78	0.3	5	11	270	0.00	1003.187	0	0.000	0
20081206 04:20	3.7	3.7	3.7	78	0.2	5	10	247	0.00	1003.220	0	0.000	0
20081206 04:25	3.7	2.1	3.7	77	0.1	6	14	247	0.00	1003.220	0	0.000	0
20081206 04:30	3.7	3.7	3.7	77	0.0	5	19	247	0.00	1003.288	0	0.000	0
20081206 04:35	3.7	3.7	3.7	77	0.0	5	11	247	0.00	1003.288	0	0.000	0
20081206 04:40	3.6	3.6	3.6	77	-0.0	5	11	247	0.00	1003.288	0	0.000	0
20081206 04:45	3.6	1.9	3.6	77	-0.1	6	14	247	0.00	1003.356	0	0.000	0
20081206 04:50	3.6	1.9	3.6	77	-0.1	6	14	247	0.00	1003.390	0	0.000	0
20081206 04:55	3.6	1.9	3.6	77	-0.1	6	19	247	0.00	1003.424	0	0.000	0
20081206 05:00	3.6	1.9	3.6	76	-0.3	6	14	247	0.00	1003.525	0	0.020	0
20081206 05:05	3.6	1.4	3.6	76	-0.3	8	19	247	0.00	1003.593	0	0.000	0
20081206 05:10	3.6	1.5	3.6	76	-0.2	8	18	247	0.00	1003.661	0	0.000	0
20081206 05:15	3.7	1.6	3.7	76	-0.2	8	19	247	0.00	1003.762	0	0.000	0
20081206 05:20	3.8	1.3	3.8	75	-0.2	10	24	247	0.00	1003.932	0	0.000	0
20081206 05:25	3.9	1.1	3.9	75	-0.1	11	21	247	0.00	1003.898	0	0.000	0
20081206 05:30	3.9	1.5	3.9	75	-0.1	10	23	247	0.00	1003.999	0	0.000	0
20081206 05:35	3.8	1.7	3.8	75	-0.2	8	16	247	0.00	1004.101	0	0.000	0
20081206 05:40	3.7	1.6	3.7	75	-0.3	8	19	247	0.00	1004.236	0	0.000	0
20081206 05:45	3.7	0.9	3.7	74	-0.5	11	24	247	0.00	1004.338	0	0.000	0
20081206 05:50	3.7	0.9	3.7	74	-0.5	11	26	247	0.00	1004.304	0	0.000	0
20081206 05:55	3.7	0.6	3.7	74	-0.5	13	32	247	0.00	1004.473	0	0.000	0
20081206 06:00	3.7	0.9	3.7	74	-0.5	11	26	270	0.00	1004.541	0	0.020	0
20081206 06:05	3.6	1.1	3.6	74	-0.6	10	19	270	0.00	1004.609	0	0.000	0
20081206 06:10	3.6	1.4	3.6	75	-0.5	8	18	247	0.00	1004.711	0	0.000	0
20081206 06:15	3.4	1.3	3.4	75	-0.6	8	18	247	0.00	1004.846	0	0.000	0
20081206 06:20	3.4	1.2	3.4	75	-0.6	8	18	270	0.00	1004.846	0	0.000	0
20081206 06:25	3.4	1.2	3.4	75	-0.6	8	26	247	0.00	1004.880	0	0.000	0
20081206 06:30	3.4	1.3	3.4	75	-0.6	8	24	247	0.00	1004.981	0	0.000	0
20081206 06:35	3.4	1.2	3.4	75	-0.6	8	14	247	0.00	1005.117	0	0.000	0
20081206 06:40	3.4	1.2	3.4	75	-0.6	8	16	247	0.00	1005.151	0	0.000	0
20081206 06:45	3.4	1.3	3.4	75	-0.6	8	19	247	0.00	1005.218	0	0.000	0
20081206 06:50	3.5	1.0	3.5	74	-0.7	10	21	247	0.00	1005.286	0	0.000	0
20081206 06:55	3.4	1.3	3.4	74	-0.7	8	21	247	0.00	1005.354	0	0.000	0
20081206 07:00	3.3	1.1	3.3	75	-0.7	8	21	247	0.00	1005.489	0	0.020	0
20081206 07:05	3.2	1.5	3.2	75	-0.8	6	16	247	0.00	1005.591	0	0.000	0
20081206 07:10	3.2	1.0	3.2	75	-0.8	8	19	247	0.00	1005.693	0	0.000	0
20081206 07:15	3.2	1.0	3.2	75	-0.8	8	19	247	0.00	1005.794	0	0.000	0
20081206 07:20	3.1	1.4	3.1	76	-0.7	6	13	247	0.00	1005.862	0	0.000	0
20081206 07:25	3.0	3.0	3.0	76	-0.8	5	14	247	0.00	1006.031	0	0.000	0
20081206 07:30	2.9	2.9	2.9	77	-0.7	5	10	270	0.00	1006.099	0	0.000	0
20081206 07:35	2.8	2.8	2.8	77	-0.8	5	10	247	0.00	1006.201	0	0.000	0
20081206 07:40	2.8	2.8	2.8	77	-0.8	3	10	225	0.00	1006.234	0	0.000	0
20081206 07:45	2.7	2.7	2.7	78	-0.7	5	14	247	0.00	1006.302	0	0.000	0
20081206 07:50	2.8	2.8	2.8	78	-0.7	5	19	247	0.00	1006.336	0	0.000	0
20081206 07:55	2.8	2.8	2.8	78	-0.7	3	10	270	0.00	1006.404	0	0.000	0
20081206 08:00	2.8	2.8	2.8	79	-0.4	5	11	247	0.00	1006.471	5	0.020	0
20081206 08:05	2.9	2.9	2.9	79	-0.4	5	18	247	0.00	1006.471	9	0.000	0
20081206 08:10	3.0	3.0	3.0	79	-0.3	5	18	247	0.00	1006.573	11	0.000	0
20081206 08:15	3.1	3.1	3.1	78	-0.3	5	11	247	0.00	1006.641	13	0.000	0
20081206 08:20	3.2	3.2	3.2	78	-0.2	5	11	247	0.00	1006.810	15	0.000	0
20081206 08:25	3.3	1.6	3.3	78	-0.2	6	11	247	0.00	1006.810	21	0.000	0
20081206 08:30	3.3	3.3	3.3	78	-0.1	5	10	247	0.00	1006.844	26	0.000	0
20081206 08:35	3.4	1.7	3.4	78	-0.1	6	11	247	0.00	1006.844	20	0.000	0
20081206 08:40	3.4	1.7	3.4	78	-0.1	6	14	247	0.00	1006.810	25	0.000	0
20081206 08:45	3.5	1.4	3.5	78	0.0	8	18	247	0.00	1006.844	28	0.000	0
20081206 08:50	3.7	1.6	3.7	77	0.0	8	18	247	0.00	1006.776	31	0.000	0
20081206 08:55	3.8	1.7	3.8	76	-0.1	8	19	247	0.00	1006.742	27	0.000	0
20081206 09:00	3.9	2.4	3.9	76	0.1	6	18	225	0.00	1006.742	27	0.020	0
20081206 09:05	4.1	2.5	4.1	75	0.0	6	18	247	0.00	1007.013	32	0.000	0
20081206 09:10	4.1	2.6	4.1	75	0.1	6	19	247	0.00	1007.013	32	0.000	0
20081206 09:15	4.2	2.2	4.2	75	0.1	8	23	247	0.00	1007.149	37	0.000	0
20081206 09:20	4.2	4.2	4.2	75	0.1	5	14	247	0.00	1007.216	35	0.000	0
20081206 09:25	4.2	4.2	4.2	75	0.1	5	11	247	0.00	1007.216	36	0.000	0
20081206 09:30	4.2	4.2	4.2	75	0.1	5	11	247	0.00	1007.149	39	0.000	0
20081206 09:35	4.2	4.2	4.2	75	0.1	3	13	225	0.00	1007.216	42	0.000	0
20081206 09:40	4.2	4.2	4.2	74	0.0	5	16	247	0.00	1007.250	46	0.000	0
20081206 09:45	4.2	4.2	4.2	74	0.0	5	14	247	0.00	1007.250	48	0.000	0
20081206 09:50	4.3	4.3	4.3	73	-0.1	5	13	225	0.00	1007.318	55	0.000	0
20081206 09:55	4.3	4.3	4.3	73	-0.1	5	18	247	0.00	1007.352	54	0.000	0
20081206 10:00	4.4	4.4	4.4	73	-0.0	5	10	247	0.00	1007.420	55	0.020	0
20081206 10:05	4.4	4.4	4.4	73	-0.0	5	14	247	0.00	1007.555	67	0.000	0
20081206 10:10	4.4	4.4	4.4	73	-0.0	3	8	225	0.00	1007.623	83	0.000	0
20081206 10:15	4.4	3.0	4.4	72	-0.2	6	13	247	0.00	1007.623	83	0.000	0
20081206 10:20	4.6	4.6	4.6	72	-0.1	5	11	247	0.00	1007.589	80	0.000	0
20081206 10:25	4.6	4.6	4.6	72	-0.1	3	10	225	0.00	1007.623	78	0.000	0
20081206 10:30	4.7	4.7	4.7	72	0.1	5	13	247	0.00	1007.623	75	0.000	0
20081206 10:35	4.7	4.7	4.7	72	0.1	5	11	247	0.00	1007.487	81	0.000	0
20081206 10:40	4.9	3.5	4.9	71	0.1	6	14	247	0.00	1007.521	99	0.000	0
20081206 10:45	5.0	3.6	5.0	71	0.2	6	14	247	0.00	1007.487	85	0.000	0
20081206 10:50	5.1	2.9	5.1	69	-0.1	10	19	247	0.00	1007.453	94	0.000	0
20081206 10:55	5.3	3.9	5.3	70	0.3	6	14	225	0.00	1007.386	91	0.000	0
20081206 11:00	5.3	3.1	5.3	68	-0.1	10	21	247	0.00	1007.386	79	0.040	0
20081206 11:05	5.3	5.3	5.3	69	0.1	3	11	247	0.00	1007.386	92	0.000	0
20081206 11:10	5.4	5.4	5.4	68	0.0	5	16	225	0.00	1007.386	163	0.000	1
20081206 11:15	5.7	4.4	5.7	67	0.0	6	16	247	0.00	1007.318	232	0.000	1
20081206 11:20	6.0	4.8	6.0	67	0.3	6	16	247	0.00	1007.149	230	0.000	1
20081206 11:25	6.0	6.0	6.0	66	0.1	5	11	225	0.00	1007.149	136	0.000	1
20081206 11:30	6.1	4.4	6.1	66	0.2	8	18	247	0.00	1007.115	238	0.000	1
20081206 11:35	6.2	4.2	6.2	64	-0.1	10	21	247	0.00	1007.081	199	0.000	1
20081206 11:40	6.3	5.1	6.3	65	0.2	6	11	270	0.00	1007.013	200	0.000	1
20081206 11:45	6.3	4.6	6.3	64	-0.0	8	19	247	0.00	1006.945	176	0.000	1
20081206 11:50	6.3	5.1	6.3	65	0.2	6	14	247	0.00	1006.945	170	0.000	1
20081206 11:55	6.4	4.8	6.4	64	0.1	8	14	247	0.00	1007.013	212	0.000	1
20081206 12:00	6.5	4.9	6.5	64	0.2	8	21	270	0.00	1006.979	175	0.080	1
20081206 12:05	6.4	4.4	6.4	63	-0.1	10	18	247	0.00	1006.810	157	0.000	1
20081206 12:10	6.3	5.1	6.3	64	0.0	6	11	270	0.00	1006.776	140	0.000	0
20081206 12:15	6.3	4.7	6.3	63	-0.2	8	18	247	0.00	1006.708	125	0.000	0
20081206 12:20	6.3	3.7	6.3	62	-0.5	13	23	247	0.00	1006.675	120	0.000	0
20081206 12:25	6.3	3.7	6.3	64	-0.0	13	21	247	0.00	1006.742	120	0.000	0
20081206 12:30	6.2	3.6	6.2	63	-0.3	13	31	247	0.00	1006.776	132	0.000	0
20081206 12:35	6.2	3.3	6.2	62	-0.5	14	26	247	0.00	1006.810	175	0.000	0
20081206 12:40	6.4	3.8	6.4	63	-0.1	13	24	247	0.00	1006.912	230	0.000	1
20081206 12:45	6.6	4.0	6.6	62	-0.2	13	27	247	0.00	1006.878	216	0.000	0
20081206 12:50	6.5	3.9	6.5	64	0.2	13	23	247	0.00	1006.912	122	0.000	0
20081206 12:55	6.3	3.7	6.3	63	-0.2	13	23	270	0.00	1006.979	103	0.000	0
20081206 13:00	6.2	3.3	6.2	63	-0.3	14	24	247	0.00	1007.115	104	0.080	0
20081206 13:05	6.1	3.7	6.1	65	-0.0	11	26	247	0.00	1007.047	77	0.000	0
20081206 13:10	5.8	2.6	5.8	67	0.2	16	29	247	0.00	1007.149	73	0.000	0
20081206 13:15	5.7	3.0	5.7	69	0.5	13	24	270	0.00	1007.318	150	0.000	0
20081206 13:20	5.8	3.4	5.8	70	0.7	11	23	247	0.00	1007.453	210	0.000	0
20081206 13:25	5.4	2.4	5.4	72	0.8	14	23	247	0.00	1007.521	135	0.000	0
20081206 13:30	4.9	1.8	4.9	75	0.9	14	23	247	0.00	1007.589	88	0.000	0
20081206 13:35	4.5	1.2	4.5	78	1.0	14	27	247	0.00	1007.792	46	0.000	0
20081206 13:40	3.8	0.7	3.8	81	0.9	13	23	247	0.00	1007.758	42	0.000	0
20081206 13:45	3.6	1.9	3.6	84	1.1	6	16	247	0.00	1007.758	62	0.000	0
20081206 13:50	3.5	1.9	3.5	85	1.2	6	16	270	0.00	1007.860	63	0.000	0
20081206 13:55	3.5	3.5	3.5	85	1.2	5	11	247	0.00	1007.792	53	0.000	0
20081206 14:00	3.6	3.6	3.6	85	1.3	5	10	225	0.00	1007.623	74	0.040	0
20081206 14:05	3.7	3.7	3.7	85	1.4	3	10	225	0.00	1007.521	74	0.000	0
20081206 14:10	3.8	3.8	3.8	85	1.5	3	16	225	0.00	1007.589	64	0.000	0
20081206 14:15	3.9	2.3	3.9	83	1.3	6	11	225	0.00	1007.589	50	0.000	0
20081206 14:20	3.8	2.2	3.8	83	1.2	6	19	247	0.00	1007.657	53	0.000	0
20081206 14:25	3.8	2.2	3.8	83	1.2	6	19	225	0.00	1007.657	51	0.000	0
20081206 14:30	3.7	2.1	3.7	83	1.1	6	14	247	0.00	1007.589	44	0.000	0
20081206 14:35	3.7	2.1	3.7	84	1.2	6	18	225	0.00	1007.555	49	0.000	0
20081206 14:40	3.6	2.0	3.6	84	1.2	6	21	225	0.00	1007.657	37	0.000	0
20081206 14:45	3.6	1.5	3.6	83	1.0	8	23	247	0.00	1007.690	29	0.000	0
20081206 14:50	3.6	1.9	3.6	83	0.9	6	16	247	0.00	1007.826	18	0.000	0
20081206 14:55	3.6	1.4	3.6	83	0.9	8	19	225	0.00	1007.894	12	0.000	0
20081206 15:00	3.5	1.9	3.5	83	0.9	6	27	225	0.00	1007.961	8	0.020	0
20081206 15:05	3.5	1.9	3.5	83	0.9	6	16	247	0.00	1008.165	7	0.000	0
20081206 15:10	3.4	1.8	3.4	84	1.0	6	21	247	0.00	1008.232	8	0.000	0
20081206 15:15	3.3	0.8	3.3	84	0.9	10	23	247	0.00	1008.300	8	0.000	0
20081206 15:20	3.1	0.1	3.1	85	0.8	11	26	225	0.20	1008.334	7	0.000	0
20081206 15:25	2.8	0.6	2.8	86	0.7	8	23	247	0.00	1008.469	6	0.000	0
20081206 15:30	2.7	0.9	2.7	87	0.7	6	16	247	0.00	1008.571	5	0.000	0
20081206 15:35	2.4	0.6	2.4	88	0.7	6	18	247	0.00	1008.706	5	0.000	0
20081206 15:40	2.3	2.3	2.3	88	0.6	5	11	225	0.00	1008.774	5	0.000	0
20081206 15:45	2.3	2.3	2.3	88	0.5	5	14	225	0.00	1008.842	5	0.000	0
20081206 15:50	2.3	2.3	2.3	89	0.7	3	8	247	0.00	1008.943	2	0.000	0
20081206 15:55	2.3	2.3	2.3	89	0.7	3	10	247	0.00	1008.943	0	0.000	0
20081206 16:00	2.2	2.2	2.2	89	0.6	3	8	225	0.00	1008.943	0	0.000	0
20081206 16:05	2.2	2.2	2.2	89	0.6	3	14	225	0.00	1009.045	0	0.000	0
20081206 16:10	2.2	2.2	2.2	90	0.7	3	10	247	0.00	1009.079	0	0.000	0
20081206 16:15	2.1	2.1	2.1	90	0.6	5	11	225	0.20	1009.079	0	0.000	0
20081206 16:20	2.1	0.2	2.1	90	0.6	6	16	247	0.00	1009.181	0	0.000	0
20081206 16:25	2.1	2.1	2.1	90	0.6	5	18	225	0.00	1009.248	0	0.000	0
20081206 16:30	2.1	0.2	2.1	90	0.6	6	19	225	0.00	1009.248	0	0.000	0
20081206 16:35	2.1	2.1	2.1	90	0.6	3	14	225	0.00	1009.384	0	0.000	0
20081206 16:40	2.1	2.1	2.1	90	0.6	3	11	247	0.00	1009.384	0	0.000	0
20081206 16:45	2.1	2.1	2.1	90	0.6	3	10	225	0.00	1009.485	0	0.000	0
20081206 16:50	2.2	2.2	2.2	90	0.7	5	10	247	0.00	1009.519	0	0.000	0
20081206 16:55	2.2	2.2	2.2	90	0.7	5	10	247	0.00	1009.621	0	0.000	0
20081206 17:00	2.2	2.2	2.2	90	0.7	5	10	225	0.00	1009.756	0	0.000	0
20081206 17:05	2.2	2.2	2.2	90	0.7	3	8	247	0.00	1009.858	0	0.000	0
20081206 17:10	2.2	2.2	2.2	90	0.7	5	11	247	0.00	1009.892	0	0.000	0
20081206 17:15	2.2	2.2	2.2	90	0.8	5	13	225	0.00	1010.027	0	0.000	0
20081206 17:20	2.3	0.5	2.3	90	0.9	6	14	225	0.00	1010.095	0	0.000	0
20081206 17:25	2.5	0.7	2.5	90	1.0	6	18	247	0.00	1009.892	0	0.000	0
20081206 17:30	2.7	-0.0	2.7	89	1.0	10	23	247	0.00	1010.027	0	0.000	0
20081206 17:35	2.8	0.6	2.8	88	1.0	8	19	247	0.00	1010.163	0	0.000	0
20081206 17:40	2.8	1.1	2.8	88	1.0	6	14	247	0.00	1010.230	0	0.000	0
20081206 17:45	2.8	1.1	2.8	87	0.9	6	16	247	0.20	1010.163	0	0.000	0
20081206 17:50	2.9	1.2	2.9	86	0.8	6	16	247	0.00	1010.332	0	0.000	0
20081206 17:55	2.8	1.1	2.8	86	0.7	6	16	247	0.00	1010.400	0	0.000	0
20081206 18:00	2.8	2.8	2.8	87	0.9	5	11	247	0.00	1010.433	0	0.000	0
20081206 18:05	2.8	1.1	2.8	87	0.9	6	19	247	0.00	1010.603	0	0.000	0
20081206 18:10	2.8	1.1	2.8	87	0.9	6	18	247	0.00	1010.637	0	0.000	0
20081206 18:15	2.9	1.2	2.9	86	0.8	6	19	247	0.00	1010.704	0	0.000	0
20081206 18:20	2.9	1.2	2.9	86	0.8	6	18	247	0.00	1010.772	0	0.000	0
20081206 18:25	2.9	0.7	2.9	86	0.8	8	18	247	0.00	1010.806	0	0.000	0
20081206 18:30	2.9	0.7	2.9	86	0.8	8	18	247	0.00	1010.874	0	0.000	0
20081206 18:35	2.9	1.2	2.9	86	0.8	6	14	247	0.00	1010.874	0	0.000	0
20081206 18:40	2.9	1.2	2.9	86	0.8	6	14	247	0.00	1010.908	0	0.000	0
20081206 18:45	3.0	0.4	3.0	85	0.7	10	23	247	0.00	1010.975	0	0.000	0
20081206 18:50	3.1	0.4	3.1	85	0.8	10	21	247	0.00	1010.941	0	0.000	0
20081206 18:55	3.1	0.5	3.1	85	0.8	10	21	247	0.00	1010.975	0	0.000	0
20081206 19:00	3.1	1.4	3.1	85	0.8	6	16	247	0.00	1011.009	0	0.020	0
20081206 19:05	3.1	0.5	3.1	85	0.8	10	18	247	0.00	1011.280	0	0.000	0
20081206 19:10	3.2	0.6	3.2	85	0.9	10	24	247	0.00	1011.314	0	0.000	0
20081206 19:15	3.2	0.2	3.2	85	0.9	11	23	247	0.00	1011.416	0	0.000	0
20081206 19:20	3.2	0.2	3.2	84	0.7	11	21	247	0.00	1011.449	0	0.000	0
20081206 19:25	3.2	0.6	3.2	85	0.9	10	21	247	0.00	1011.483	0	0.000	0
20081206 19:30	3.2	0.2	3.2	85	0.9	11	24	247	0.00	1011.551	0	0.000	0
20081206 19:35	3.2	-0.1	3.2	85	0.9	13	21	247	0.00	1011.720	0	0.000	0
20081206 19:40	3.1	0.1	3.1	85	0.8	11	19	247	0.00	1011.822	0	0.000	0
20081206 19:45	3.1	0.1	3.1	85	0.8	11	23	270	0.00	1011.890	0	0.000	0
20081206 19:50	3.0	-0.3	3.0	85	0.7	13	24	247	0.00	1011.991	0	0.000	0
20081206 19:55	2.9	-0.5	2.9	86	0.8	13	29	247	0.00	1012.161	0	0.000	0
20081206 20:00	2.8	-0.9	2.8	86	0.7	14	26	270	0.00	1012.127	0	0.020	0
20081206 20:05	2.7	-1.0	2.7	86	0.6	14	24	247	0.00	1012.194	0	0.000	0
20081206 20:10	2.4	-1.6	2.4	87	0.5	16	32	270	0.00	1012.330	0	0.000	0
20081206 20:15	2.3	-1.5	2.3	88	0.5	14	29	270	0.00	1012.601	0	0.000	0
20081206 20:20	2.1	-1.8	2.1	88	0.3	14	26	270	0.00	1012.702	0	0.000	0
20081206 20:25	1.9	-2.0	1.9	89	0.3	14	23	270	0.20	1012.906	0	0.000	0
20081206 20:30	1.8	-1.5	1.8	90	0.3	11	23	270	0.00	1012.939	0	0.000	0
20081206 20:35	1.8	-1.1	1.8	90	0.3	10	21	270	0.00	1013.041	0	0.000	0
20081206 20:40	1.8	-1.4	1.8	90	0.4	11	21	270	0.20	1013.075	0	0.000	0
20081206 20:45	1.9	-1.0	1.9	90	0.4	10	21	247	0.00	1013.143	0	0.000	0
20081206 20:50	1.9	-1.0	1.9	90	0.4	10	19	270	0.00	1013.244	0	0.000	0
20081206 20:55	1.9	-1.0	1.9	90	0.4	10	19	270	0.00	1013.380	0	0.000	0
20081206 21:00	1.9	-1.0	1.9	90	0.4	10	26	247	0.00	1013.414	0	0.020	0
20081206 21:05	1.9	-1.0	1.9	90	0.4	10	24	270	0.00	1013.481	0	0.000	0
20081206 21:10	1.9	-0.5	1.9	90	0.4	8	16	247	0.00	1013.549	0	0.000	0
20081206 21:15	1.9	-1.0	1.9	90	0.4	10	18	247	0.00	1013.549	0	0.000	0
20081206 21:20	1.9	-0.5	1.9	90	0.4	8	14	247	0.00	1013.718	0	0.000	0
20081206 21:25	1.9	-0.9	1.9	90	0.5	10	18	270	0.00	1013.684	0	0.000	0
20081206 21:30	1.9	-0.9	1.9	90	0.5	10	21	270	0.00	1013.752	0	0.000	0
20081206 21:35	1.9	-1.3	1.9	90	0.5	11	26	270	0.00	1013.820	0	0.000	0
20081206 21:40	2.0	-0.4	2.0	90	0.5	8	16	247	0.00	1013.888	0	0.000	0
20081206 21:45	2.0	-0.8	2.0	90	0.5	10	16	247	0.00	1013.989	0	0.000	0
20081206 21:50	2.0	-0.4	2.0	90	0.5	8	18	270	0.00	1014.023	0	0.000	0
20081206 21:55	2.1	-0.8	2.1	90	0.6	10	21	247	0.00	1014.125	0	0.000	0
20081206 22:00	2.1	-0.8	2.1	90	0.6	10	19	247	0.00	1014.226	0	0.000	0
20081206 22:05	2.1	-0.3	2.1	90	0.6	8	16	247	0.00	1014.159	0	0.000	0
20081206 22:10	2.1	-0.7	2.1	90	0.6	10	21	247	0.00	1014.159	0	0.000	0
20081206 22:15	2.2	-0.2	2.2	89	0.5	8	19	247	0.00	1014.362	0	0.000	0
20081206 22:20	2.2	-0.6	2.2	89	0.5	10	18	247	0.00	1014.362	0	0.000	0
20081206 22:25	2.2	-0.2	2.2	89	0.5	8	19	247	0.00	1014.463	0	0.000	0
20081206 22:30	2.2	-0.6	2.2	89	0.6	10	21	247	0.00	1014.463	0	0.000	0
20081206 22:35	2.2	-0.6	2.2	89	0.6	10	18	247	0.00	1014.531	0	0.000	0
20081206 22:40	2.2	-0.6	2.2	88	0.4	10	18	247	0.00	1014.497	0	0.000	0
20081206 22:45	2.2	-0.1	2.2	88	0.4	8	16	247	0.00	1014.565	0	0.000	0
20081206 22:50	2.2	-0.1	2.2	88	0.4	8	18	270	0.00	1014.700	0	0.000	0
20081206 22:55	2.2	-0.1	2.2	88	0.4	8	18	247	0.00	1014.734	0	0.000	0
20081206 23:00	2.3	-0.1	2.3	88	0.5	8	19	247	0.00	1014.802	0	0.000	0
20081206 23:05	2.2	-0.1	2.2	88	0.4	8	19	247	0.00	1014.734	0	0.000	0
20081206 23:10	2.3	-0.1	2.3	88	0.5	8	23	270	0.00	1014.768	0	0.000	0
20081206 23:15	2.3	-0.5	2.3	88	0.5	10	19	270	0.00	1014.802	0	0.000	0
20081206 23:20	2.3	-0.5	2.3	88	0.5	10	19	270	0.00	1014.870	0	0.000	0
20081206 23:25	2.3	-0.5	2.3	88	0.5	10	18	270	0.00	1014.971	0	0.000	0
20081206 23:30	2.3	-0.5	2.3	88	0.5	10	21	270	0.00	1014.971	0	0.000	0
20081206 23:35	2.2	-0.1	2.2	88	0.4	8	11	247	0.00	1015.073	0	0.000	0
20081206 23:40	2.2	0.4	2.2	88	0.4	6	16	270	0.00	1015.141	0	0.000	0
20081206 23:45	2.2	-0.1	2.2	88	0.4	8	14	270	0.00	1015.174	0	0.000	0
20081206 23:50	2.2	0.4	2.2	88	0.4	6	18	247	0.00	1015.276	0	0.000	0
20081206 23:55	2.2	-0.1	2.2	88	0.4	8	18	270	0.00	1015.344	0	0.000	0
20081206 24:00	2.2	-0.1	2.2	88	0.4	8	18	270	0.00	1015.310	0	0.000	0



Please note the license to use and transfer of this data:
http://creativecommons.org/licenses/by-nc-sa/3.0/deed.en

Bitte beachten sie die Lizenz zur Verwertung und Weitergabe der Daten:
http://creativecommons.org/licenses/by-nc-sa/3.0/deed.de

zurück zur Übersicht der Archivdaten (Monats und Tagesdaten)

Cookies helfen bei der Bereitstellung von Inhalten. Durch die Nutzung dieser Seiten erklärst du dich damit einverstanden, dass Cookies auf deinem Rechner gespeichert werden. Weitere Information